Time;durP1;ratioP1;P1;durP2;ratioP2;P2;SDS_P1;SDS_P2;PMS_P1;PMS_P2;Temp;Humidity;BMP_temperature;BMP_pressure;BME280_temperature;BME280_humidity;BME280_pressure;Samples;Min_cycle;Max_cycle;Signal;HPM_P1;HPM_P2
2021/10/10 00:04:22;;;;;;;;;;;5.70;99.90;;;4.25;100.00;96513.69;10571938;28;1902;-77
2021/10/10 00:09:25;;;;;;;;;;;5.50;99.90;;;4.20;100.00;96514.34;10551381;28;1937;-80
2021/10/10 00:14:28;;;;;;;;;;;5.50;99.90;;;4.17;100.00;96512.13;10568652;27;1871;-77
2021/10/10 00:19:31;;;;;;;;;;;5.40;99.90;;;4.05;100.00;96508.50;10570570;28;1913;-78
2021/10/10 00:24:33;;;;;;;;;;;5.30;99.90;;;4.03;100.00;96505.25;10567792;28;1787;-77
2021/10/10 00:29:36;;;;;;;;;;;5.20;99.90;;;4.06;100.00;96504.81;10570731;28;1898;-77
2021/10/10 00:34:39;;;;;;;;;;;5.30;99.90;;;3.91;100.00;96504.31;10571272;27;1752;-77
2021/10/10 00:39:42;;;;;;;;;;;5.20;99.90;;;3.74;100.00;96496.81;10567318;27;1987;-77
2021/10/10 00:44:45;;;;;;;;;;;5.10;99.90;;;3.80;100.00;96501.28;10550065;27;1859;-77
2021/10/10 00:49:47;;;;;;;;;;;5.10;99.90;;;3.70;100.00;96490.31;10569786;28;1886;-77
2021/10/10 00:54:50;;;;;;;;;;;5.00;99.90;;;3.74;100.00;96488.00;10560115;28;1902;-76
2021/10/10 00:59:53;;;;;;;;;;;5.00;99.90;;;3.77;100.00;96496.41;10549027;28;1911;-76
2021/10/10 01:04:56;;;;;;;;;;;5.00;99.90;;;3.78;100.00;96500.69;10564320;28;1863;-77
2021/10/10 01:09:59;;;;;;;;;;;5.00;99.90;;;3.67;100.00;96496.03;10547724;28;1882;-78
2021/10/10 01:15:06;;;;;;;;;;;4.90;99.90;;;3.59;100.00;96498.94;10548490;28;1847;-77
2021/10/10 01:20:10;;;;;;;;;;;4.90;99.90;;;3.59;100.00;96498.94;10564164;27;1909;-77
2021/10/10 01:25:13;;;;;;;;;;;4.90;99.90;;;3.52;100.00;96495.50;10564736;28;1918;-77
2021/10/10 01:30:16;;;;;;;;;;;4.80;99.90;;;3.49;100.00;96490.59;10564766;28;2011;-76
2021/10/10 01:35:19;;;;;;;;;;;4.80;99.90;;;3.47;100.00;96487.34;10563836;27;1908;-79
2021/10/10 01:40:22;;;;;;;;;;;4.70;99.90;;;3.57;100.00;96479.75;10550518;28;1914;-76
2021/10/10 01:45:25;;;;;;;;;;;4.80;99.90;;;3.49;100.00;96482.63;10562790;28;1913;-77
2021/10/10 01:50:28;;;;;;;;;;;4.80;99.90;;;3.45;100.00;96481.44;10567384;28;1835;-77
2021/10/10 01:55:31;;;;;;;;;;;4.70;99.90;;;3.40;100.00;96478.59;10560768;28;1948;-77
2021/10/10 02:00:34;;;;;;;;;;;4.70;99.90;;;3.36;100.00;96477.34;10549186;28;2159;-77
2021/10/10 02:05:37;;;;;;;;;;;4.70;99.90;;;3.39;100.00;96472.44;10565541;28;2023;-77
2021/10/10 02:10:40;;;;;;;;;;;4.70;99.90;;;3.37;100.00;96474.50;10568728;28;2074;-77
2021/10/10 02:15:43;;;;;;;;;;;4.70;99.90;;;3.29;100.00;96471.25;10565732;28;2012;-77
2021/10/10 02:20:46;;;;;;;;;;;4.70;99.90;;;3.23;100.00;96465.75;10570828;28;2103;-77
2021/10/10 02:25:49;;;;;;;;;;;4.60;99.90;;;3.20;100.00;96465.38;10576680;28;2043;-77
2021/10/10 02:30:52;;;;;;;;;;;4.60;99.90;;;3.25;100.00;96468.22;10577643;27;1955;-77
2021/10/10 02:35:55;;;;;;;;;;;4.50;99.90;;;3.14;100.00;96458.25;10572938;27;2034;-77
2021/10/10 02:40:59;;;;;;;;;;;4.40;99.90;;;3.13;100.00;96460.09;10577807;28;2070;-77
2021/10/10 02:46:02;;;;;;;;;;;4.40;99.90;;;3.10;100.00;96460.50;10571593;28;1952;-76
2021/10/10 02:51:05;;;;;;;;;;;4.40;99.90;;;3.18;100.00;96460.28;10579806;27;2074;-77
2021/10/10 02:56:08;;;;;;;;;;;4.50;99.90;;;3.23;100.00;96465.75;10574061;28;2039;-77
2021/10/10 03:01:11;;;;;;;;;;;4.50;99.90;;;3.06;100.00;96461.13;10561008;28;2054;-77
2021/10/10 03:06:14;;;;;;;;;;;4.40;99.90;;;2.94;100.00;96453.00;10569695;28;2086;-77
2021/10/10 03:11:18;;;;;;;;;;;4.30;99.90;;;2.93;100.00;96456.69;10575641;28;1944;-77
2021/10/10 03:16:21;;;;;;;;;;;4.20;99.90;;;2.81;100.00;96450.38;10574728;28;2194;-79
2021/10/10 03:21:24;;;;;;;;;;;4.10;99.90;;;2.82;100.00;96442.19;10570415;28;2006;-76
2021/10/10 03:26:27;;;;;;;;;;;4.10;99.90;;;2.93;100.00;96443.41;10574068;28;2113;-77
2021/10/10 03:31:29;;;;;;;;;;;4.10;99.90;;;2.77;100.00;96436.69;10576376;27;1991;-77
2021/10/10 03:36:32;;;;;;;;;;;4.10;99.90;;;2.70;100.00;96446.50;10570501;27;1909;-77
2021/10/10 03:41:35;;;;;;;;;;;4.10;99.90;;;2.67;100.00;96447.75;10574452;27;2007;-76
2021/10/10 03:46:39;;;;;;;;;;;;;;;2.64;100.00;96444.69;10567452;28;1940;-76
2021/10/10 03:51:43;;;;;;;;;;;;;;;2.64;100.00;96442.03;10572534;28;2153;-77
2021/10/10 03:56:46;;;;;;;;;;;4.00;99.90;;;2.67;100.00;96441.59;10564273;28;2078;-76
2021/10/10 04:01:49;;;;;;;;;;;4.00;99.90;;;2.61;100.00;96442.47;10574009;28;2079;-77
2021/10/10 04:06:52;;;;;;;;;;;3.90;99.90;;;2.55;100.00;96440.63;10571331;28;1944;-77
2021/10/10 04:11:55;;;;;;;;;;;3.90;99.90;;;2.53;100.00;96432.84;10557731;28;1977;-76
2021/10/10 04:16:57;;;;;;;;;;;3.80;99.90;;;2.63;100.00;96422.63;10569888;28;2034;-77
2021/10/10 04:22:00;;;;;;;;;;;3.80;99.90;;;2.66;100.00;96430.19;10571125;28;1955;-76
2021/10/10 04:27:03;;;;;;;;;;;3.90;99.90;;;2.75;100.00;96429.97;10569471;28;2032;-77
2021/10/10 04:32:06;;;;;;;;;;;4.00;99.90;;;2.60;100.00;96424.88;10572687;27;2045;-77
2021/10/10 04:37:09;;;;;;;;;;;3.90;99.90;;;2.61;100.00;96431.84;10567279;28;2011;-77
2021/10/10 04:42:12;;;;;;;;;;;3.80;99.90;;;2.47;100.00;96431.03;10571506;28;2014;-78
2021/10/10 04:47:15;;;;;;;;;;;3.70;99.90;;;2.44;100.00;96431.44;10563514;28;1999;-77
2021/10/10 04:52:18;;;;;;;;;;;3.70;99.90;;;2.43;100.00;96435.13;10569646;28;2055;-78
2021/10/10 04:57:21;;;;;;;;;;;3.70;99.90;;;2.44;100.00;96432.25;10548149;28;2128;-78
2021/10/10 05:02:24;;;;;;;;;;;3.60;99.90;;;2.42;100.00;96433.50;10566577;28;1920;-77
2021/10/10 05:07:27;;;;;;;;;;;3.60;99.90;;;2.38;100.00;96440.25;10564435;28;1975;-78
2021/10/10 05:12:31;;;;;;;;;;;3.60;99.90;;;2.36;100.00;96440.44;10550252;28;2299;-76
2021/10/10 05:17:34;;;;;;;;;;;3.60;99.90;;;2.35;100.00;96438.78;10568970;28;1975;-76
2021/10/10 05:22:37;;;;;;;;;;;3.60;99.90;;;2.25;100.00;96440.25;10560462;28;1922;-76
2021/10/10 05:27:39;;;;;;;;;;;3.50;99.90;;;2.26;100.00;96447.19;10543462;28;1925;-76
2021/10/10 05:32:42;;;;;;;;;;;3.50;99.90;;;2.20;100.00;96455.94;10565676;27;2027;-76
2021/10/10 05:37:45;;;;;;;;;;;3.50;99.90;;;2.10;100.00;96449.22;10563957;28;2126;-76
2021/10/10 05:42:48;;;;;;;;;;;3.40;99.90;;;2.10;100.00;96457.19;10575267;28;2123;-77
2021/10/10 05:47:51;;;;;;;;;;;3.30;99.90;;;2.17;100.00;96447.41;10576047;28;1956;-77
2021/10/10 05:52:54;;;;;;;;;;;3.30;99.90;;;2.18;100.00;96448.22;10566914;28;1975;-77
2021/10/10 05:58:02;;;;;;;;;;;3.40;99.90;;;2.26;100.00;96452.47;10570376;27;2082;-77
2021/10/10 06:03:05;;;;;;;;;;;3.40;99.90;;;2.34;100.00;96460.22;10573598;28;1977;-77
2021/10/10 06:08:08;;;;;;;;;;;3.50;99.90;;;2.46;100.00;96460.44;10574911;27;2039;-77
2021/10/10 06:13:12;;;;;;;;;;;3.60;99.90;;;2.59;100.00;96466.53;10552026;28;1940;-77
2021/10/10 06:18:14;;;;;;;;;;;3.60;99.90;;;2.61;100.00;96464.50;10576600;27;2086;-77
2021/10/10 06:23:17;;;;;;;;;;;3.80;99.90;;;2.68;100.00;96465.31;10554314;28;2055;-77
2021/10/10 06:28:20;;;;;;;;;;;3.80;99.90;;;2.75;100.00;96470.59;10574712;28;1979;-77
2021/10/10 06:33:23;;;;;;;;;;;3.80;99.90;;;2.72;100.00;96471.81;10576497;27;1970;-77
2021/10/10 06:38:26;;;;;;;;;;;3.90;99.90;;;2.89;100.00;96474.03;10571229;28;1924;-77
2021/10/10 06:43:29;;;;;;;;;;;3.90;99.90;;;2.99;100.00;96477.09;10574519;28;2340;-79
2021/10/10 06:48:32;;;;;;;;;;;4.00;99.90;;;3.00;100.00;96476.06;10554342;28;2031;-78
2021/10/10 06:53:34;;;;;;;;;;;4.10;99.90;;;3.16;100.00;96467.63;10567657;28;2049;-77
2021/10/10 06:58:37;;;;;;;;;;;4.20;99.90;;;3.23;100.00;96473.72;10572033;28;1819;-77
2021/10/10 07:03:40;;;;;;;;;;;4.30;99.90;;;3.30;100.00;96476.34;10570925;28;1972;-77
2021/10/10 07:08:43;;;;;;;;;;;4.40;99.90;;;3.39;100.00;96487.59;10570538;28;1768;-78
2021/10/10 07:13:46;;;;;;;;;;;4.50;99.90;;;3.45;100.00;96487.56;10567558;28;1878;-76
2021/10/10 07:18:51;;;;;;;;;;;4.50;99.90;;;3.51;100.00;96491.22;10570702;28;1890;-76
2021/10/10 07:24:52;;;;;;;;;;;4.60;99.90;;;3.60;100.00;96489.13;10565140;28;1926;-77
2021/10/10 07:29:30;;;;;;;;;;;4.60;99.90;;;3.91;100.00;96491.81;10569484;28;1818;-77
2021/10/10 07:34:33;;;;;;;;;;;4.80;99.90;;;3.98;100.00;96489.13;10564647;28;1918;-77
2021/10/10 07:39:36;;;;;;;;;;;5.00;99.90;;;4.08;99.32;96492.13;10562400;28;1891;-77
2021/10/10 07:44:43;;;;;;;;;;;5.10;99.90;;;4.18;98.75;96496.97;10566198;28;1890;-77
2021/10/10 07:49:48;;;;;;;;;;;5.20;99.90;;;4.40;97.46;96494.78;10524482;28;1187123;-76
2021/10/10 07:54:51;;;;;;;;;;;5.30;99.90;;;4.34;95.86;96499.91;10562621;27;1883;-76
2021/10/10 07:59:54;;;;;;;;;;;5.40;99.90;;;4.33;96.76;96500.97;10572553;28;1923;-77
2021/10/10 08:04:56;;;;;;;;;;;5.40;99.90;;;4.77;96.00;96493.84;10572590;27;1980;-77
2021/10/10 08:09:59;;;;;;;;;;;5.60;99.90;;;4.84;94.45;96493.78;10573369;28;1865;-76
2021/10/10 08:15:02;;;;;;;;;;;5.80;99.90;;;5.00;94.91;96497.69;10569790;28;1945;-76
2021/10/10 08:20:05;;;;;;;;;;;5.90;99.90;;;5.06;92.97;96489.63;10569940;27;1827;-78
2021/10/10 08:25:08;;;;;;;;;;;6.00;99.90;;;5.10;91.58;96496.16;10546735;28;1916;-77
2021/10/10 08:30:11;;;;;;;;;;;6.20;99.90;;;5.32;91.64;96488.53;10572393;28;1865;-77
2021/10/10 08:35:14;;;;;;;;;;;6.30;99.90;;;5.73;89.79;96494.22;10563627;27;2192;-76
2021/10/10 08:40:16;;;;;;;;;;;6.60;99.90;;;5.92;89.01;96499.31;10569763;27;1969;-78
2021/10/10 08:45:21;;;;;;;;;;;6.80;99.90;;;5.91;87.71;96505.66;10561835;28;1949;-78
2021/10/10 08:50:24;;;;;;;;;;;7.00;99.90;;;5.92;87.05;96504.66;10546680;28;1928;-79
2021/10/10 08:55:27;;;;;;;;;;;6.90;99.90;;;5.92;88.14;96503.84;10569430;27;1838;-77
2021/10/10 09:00:32;;;;;;;;;;;6.90;99.90;;;6.23;87.18;96502.75;10567594;28;1880;-76
2021/10/10 09:05:35;;;;;;;;;;;7.10;99.90;;;6.42;85.50;96495.47;10545270;28;1990;-77
2021/10/10 09:10:39;;;;;;;;;;;7.30;99.90;;;6.67;84.89;96498.78;10569343;28;1907;-77
2021/10/10 09:15:42;;;;;;;;;;;7.50;99.90;;;6.43;85.01;96497.94;10569974;27;2191;-77
2021/10/10 09:20:45;;;;;;;;;;;7.60;99.90;;;6.73;85.35;96494.38;10563869;28;1990;-78
2021/10/10 09:25:48;;;;;;;;;;;7.60;99.90;;;6.67;84.80;96495.28;10562982;28;2181;-78
2021/10/10 09:30:52;;;;;;;;;;;7.70;99.90;;;6.80;85.40;96489.72;10548726;28;1880;-77
2021/10/10 09:35:55;;;;;;;;;;;7.80;99.90;;;6.66;84.31;96491.00;10565984;27;2029;-78
2021/10/10 09:41:01;;;;;;;;;;;7.80;99.90;;;6.90;85.48;96489.97;10562150;28;1851;-77
2021/10/10 09:46:04;;;;;;;;;;;7.80;99.90;;;7.10;84.24;96486.94;10579581;28;1902;-79
2021/10/10 09:51:06;;;;;;;;;;;8.00;99.90;;;7.10;85.13;96480.78;10565868;28;2128;-74
2021/10/10 09:56:09;;;;;;;;;;;8.10;99.90;;;7.45;83.72;96481.53;10558936;28;1850;-77
2021/10/10 10:01:13;;;;;;;;;;;8.30;99.90;;;7.66;83.12;96488.09;10566075;28;1882;-77
2021/10/10 10:06:16;;;;;;;;;;;8.50;99.90;;;7.71;82.94;96498.09;10576304;28;1917;-76
2021/10/10 10:11:19;;;;;;;;;;;8.60;99.90;;;7.78;82.92;96480.03;10601375;28;1331;-77
2021/10/10 10:16:22;;;;;;;;;;;8.70;99.90;;;8.11;81.15;96490.84;10592854;28;2182;-75
2021/10/10 10:21:25;;;;;;;;;;;9.00;99.90;;;7.78;81.88;96485.41;10614203;28;1715;-76
2021/10/10 10:26:28;;;;;;;;;;;9.00;99.90;;;7.85;81.90;96483.38;10593643;28;1922;-76
2021/10/10 10:31:31;;;;;;;;;;;8.90;99.90;;;7.93;81.54;96490.22;10574634;28;1976;-77
2021/10/10 10:36:34;;;;;;;;;;;9.00;99.90;;;8.29;81.59;96483.66;10568224;28;1913;-76
2021/10/10 10:41:37;;;;;;;;;;;9.20;99.90;;;8.45;80.35;96480.19;10578731;27;1886;-76
2021/10/10 10:46:40;;;;;;;;;;;9.30;99.90;;;8.48;79.24;96477.03;10573671;28;2060;-75
2021/10/10 10:51:43;;;;;;;;;;;9.40;99.90;;;8.33;79.23;96482.94;10578877;28;1884;-75
2021/10/10 10:56:46;;;;;;;;;;;9.50;99.90;;;8.64;79.19;96476.22;10612307;28;1945;-76
2021/10/10 11:01:49;;;;;;;;;;;9.50;99.90;;;8.92;77.43;96479.88;10616270;27;1961;-76
2021/10/10 11:06:52;;;;;;;;;;;9.70;99.90;;;8.74;76.47;96482.81;10615776;27;1719;-78
2021/10/10 11:11:55;;;;;;;;;;;9.80;99.90;;;8.81;76.47;96484.28;10604165;28;1965;-76
2021/10/10 11:16:58;;;;;;;;;;;9.90;99.90;;;8.56;77.87;96482.00;10576938;28;1952;-77
2021/10/10 11:22:01;;;;;;;;;;;9.70;99.90;;;8.93;77.65;96473.47;10564488;28;2108;-78
2021/10/10 11:27:04;;;;;;;;;;;9.80;99.90;;;9.18;76.08;96463.09;10592225;27;1381;-77
2021/10/10 11:32:07;;;;;;;;;;;10.00;99.90;;;9.44;74.83;96456.19;10595167;27;1326;-77
2021/10/10 11:37:10;;;;;;;;;;;10.30;99.90;;;9.37;74.74;96460.13;10584528;28;1550;-77
2021/10/10 11:42:13;;;;;;;;;;;10.30;99.90;;;9.69;73.51;96458.38;10589816;27;2061;-79
2021/10/10 11:47:16;;;;;;;;;;;10.50;99.90;;;9.51;70.00;96456.00;10582472;27;2061;-76
2021/10/10 11:52:22;;;;;;;;;;;10.50;99.90;;;9.62;71.20;96438.97;10560508;27;1867;-78
2021/10/10 11:57:24;;;;;;;;;;;10.60;99.90;;;9.86;68.03;96442.19;10565588;27;1875;-75
2021/10/10 12:02:27;;;;;;;;;;;10.70;99.90;;;9.67;65.83;96439.03;10541989;28;1940;-76
2021/10/10 12:07:30;;;;;;;;;;;10.80;99.90;;;9.59;66.34;96434.06;10566651;28;2068;-75
2021/10/10 12:12:33;;;;;;;;;;;10.70;99.90;;;9.92;64.12;96432.28;10567998;28;1986;-75
2021/10/10 12:17:36;;;;;;;;;;;10.80;99.90;;;9.90;66.06;96443.28;10567719;27;2025;-75
2021/10/10 12:22:39;;;;;;;;;;;10.90;99.90;;;10.10;67.28;96441.88;10568913;28;1929;-76
2021/10/10 12:27:43;;;;;;;;;;;11.00;99.90;;;10.24;64.46;96427.81;10567194;27;1882;-75
2021/10/10 12:32:46;;;;;;;;;;;11.10;99.90;;;10.21;61.10;96427.47;10566091;27;1952;-76
2021/10/10 12:37:49;;;;;;;;;;;11.20;99.90;;;10.13;61.19;96420.69;10553089;27;2108;-76
2021/10/10 12:42:52;;;;;;;;;;;11.20;99.90;;;9.90;59.27;96420.97;10571017;27;1921;-74
2021/10/10 12:47:55;;;;;;;;;;;11.10;99.90;;;10.07;60.07;96421.69;10550543;27;2072;-77
2021/10/10 12:52:58;;;;;;;;;;;11.00;99.90;;;10.16;57.99;96413.97;10571776;27;1825;-76
2021/10/10 12:58:01;;;;;;;;;;;11.20;99.90;;;10.13;58.96;96417.19;10570533;27;1922;-76
2021/10/10 13:03:05;;;;;;;;;;;11.20;99.90;;;10.09;58.64;96408.00;10559315;27;2111;-75
2021/10/10 13:08:08;;;;;;;;;;;11.10;99.90;;;10.16;58.79;96417.47;10549708;27;2068;-75
2021/10/10 13:13:11;;;;;;;;;;;11.20;99.90;;;10.11;60.20;96417.41;10546581;27;1986;-75
2021/10/10 13:18:14;;;;;;;;;;;11.20;99.90;;;10.17;61.17;96410.22;10578290;27;2087;-76
2021/10/10 13:23:17;;;;;;;;;;;11.20;99.90;;;10.05;61.06;96402.31;10574563;27;1910;-76
2021/10/10 13:28:20;;;;;;;;;;;11.20;99.90;;;10.17;59.51;96411.03;10576638;27;1955;-76
2021/10/10 13:33:23;;;;;;;;;;;11.20;99.90;;;10.15;60.34;96397.06;10567062;27;1921;-77
2021/10/10 13:38:26;;;;;;;;;;;11.20;99.90;;;10.11;59.26;96398.63;10567812;28;1871;-77
2021/10/10 13:43:30;;;;;;;;;;;11.20;99.90;;;10.35;55.75;96403.69;10555225;28;2002;-76
2021/10/10 13:48:32;;;;;;;;;;;11.30;99.90;;;10.36;55.28;96392.69;10564868;28;1883;-76
2021/10/10 13:53:36;;;;;;;;;;;11.40;99.90;;;10.35;54.15;96393.75;10572810;28;2000;-76
2021/10/10 13:58:39;;;;;;;;;;;11.30;99.90;;;10.17;54.26;96394.91;10581058;27;1984;-76
2021/10/10 14:03:42;;;;;;;;;;;11.30;99.90;;;10.18;53.97;96391.19;10577661;27;1953;-75
2021/10/10 14:08:45;;;;;;;;;;;11.30;99.90;;;10.10;54.17;96383.56;10565323;28;1859;-75
2021/10/10 14:13:48;;;;;;;;;;;11.20;99.90;;;10.02;55.58;96397.47;10565271;28;1958;-75
2021/10/10 14:18:52;;;;;;;;;;;11.20;99.90;;;9.99;58.07;96398.00;10572160;27;1891;-76
2021/10/10 14:23:55;;;;;;;;;;;11.10;99.90;;;10.13;56.96;96395.69;10576636;27;1925;-76
2021/10/10 14:28:57;;;;;;;;;;;11.10;99.90;;;9.91;56.20;96391.19;10576415;28;1886;-76
2021/10/10 14:34:00;;;;;;;;;;;11.10;99.90;;;9.90;57.46;96394.13;10574289;27;1953;-76
2021/10/10 14:39:04;;;;;;;;;;;11.00;99.90;;;9.69;58.20;96396.63;10580614;27;1916;-77
2021/10/10 14:44:13;;;;;;;;;;;11.00;99.90;;;9.81;57.86;96392.97;10570416;28;1909;-75
2021/10/10 14:49:16;;;;;;;;;;;10.80;99.90;;;9.89;57.72;96393.31;10573145;27;1882;-76
2021/10/10 14:54:19;;;;;;;;;;;10.90;99.90;;;9.83;58.63;96388.16;10571465;27;1910;-75
2021/10/10 14:59:22;;;;;;;;;;;10.90;99.90;;;9.73;58.50;96381.63;10572717;28;1774;-75
2021/10/10 15:04:25;;;;;;;;;;;10.90;99.90;;;9.79;59.35;96381.66;10552823;27;1917;-76
2021/10/10 15:09:35;;;;;;;;;;;10.80;99.90;;;9.79;60.06;96387.03;10552479;27;1925;-76
2021/10/10 15:14:38;;;;;;;;;;;10.80;99.90;;;9.79;60.24;96392.41;10569427;27;1953;-75
2021/10/10 15:19:41;;;;;;;;;;;10.80;99.90;;;9.87;59.74;96386.59;10575075;27;1922;-75
2021/10/10 15:24:44;;;;;;;;;;;10.80;99.90;;;9.71;60.23;96396.34;10595155;27;1914;-75
2021/10/10 15:29:47;;;;;;;;;;;10.80;99.90;;;9.67;61.82;96403.28;10605490;27;1820;-75
2021/10/10 15:35:10;;;;;;;;;;;10.80;99.90;;;9.55;61.18;96408.81;10581428;28;1931;-76
2021/10/10 15:40:13;;;;;;;;;;;10.70;99.90;;;9.56;61.85;96417.69;10574029;28;1970;-76
2021/10/10 15:45:16;;;;;;;;;;;10.60;99.90;;;9.53;62.81;96420.84;10574195;27;1976;-76
2021/10/10 15:50:18;;;;;;;;;;;10.60;99.90;;;9.49;63.01;96417.88;10571011;27;1945;-75
2021/10/10 15:55:21;;;;;;;;;;;10.60;99.90;;;9.45;64.57;96419.41;10562950;27;1921;-75
2021/10/10 16:00:24;;;;;;;;;;;10.60;99.90;;;9.40;63.92;96427.41;10569409;27;1937;-77
2021/10/10 16:05:27;;;;;;;;;;;10.50;99.90;;;9.31;64.08;96426.22;10574025;27;1925;-75
2021/10/10 16:10:30;;;;;;;;;;;10.40;99.90;;;9.07;66.14;96426.44;10575127;27;2029;-75
2021/10/10 16:15:33;;;;;;;;;;;10.30;99.90;;;8.87;68.00;96420.81;10578662;27;1914;-75
2021/10/10 16:20:36;;;;;;;;;;;10.20;99.90;;;8.60;69.12;96424.19;10578507;27;1823;-75
2021/10/10 16:25:39;;;;;;;;;;;10.00;99.90;;;8.59;69.35;96427.13;10566746;27;1974;-75
2021/10/10 16:30:43;;;;;;;;;;;9.80;99.90;;;8.46;70.66;96433.63;10559337;28;1926;-77
2021/10/10 16:35:48;;;;;;;;;;;9.70;99.90;;;8.44;71.75;96435.72;10546559;27;1887;-75
2021/10/10 16:41:06;;;;;;;;;;;9.60;99.90;;;8.24;72.86;96440.72;10568847;27;1895;-76
2021/10/10 16:46:09;;;;;;;;;;;9.50;99.90;;;7.95;74.69;96447.94;10562164;28;2200;-76
2021/10/10 16:51:12;;;;;;;;;;;9.40;99.90;;;7.79;76.57;96460.25;10564102;27;2211;-75
2021/10/10 16:56:15;;;;;;;;;;;9.20;99.90;;;7.51;79.63;96450.34;10565047;27;2100;-76
2021/10/10 17:01:18;;;;;;;;;;;8.90;99.90;;;7.31;79.73;96448.88;10571936;27;1908;-77
2021/10/10 17:06:21;;;;;;;;;;;8.80;99.90;;;7.10;79.75;96462.06;10545690;28;2527;-77
2021/10/10 17:11:24;;;;;;;;;;;8.60;99.90;;;7.00;80.93;96463.47;10569199;28;1950;-77
2021/10/10 17:16:27;;;;;;;;;;;8.40;99.90;;;6.88;79.64;96465.34;10565294;28;1893;-76
2021/10/10 17:21:30;;;;;;;;;;;8.30;99.90;;;6.75;80.93;96471.72;10563844;28;2037;-76
2021/10/10 17:26:32;;;;;;;;;;;8.20;99.90;;;6.62;81.22;96481.84;10569113;27;1928;-77
2021/10/10 17:31:35;;;;;;;;;;;8.00;99.90;;;6.58;80.22;96483.34;10571803;27;2019;-77
2021/10/10 17:36:38;;;;;;;;;;;8.00;99.90;;;6.50;81.40;96485.31;10562687;28;1918;-76
2021/10/10 17:41:41;;;;;;;;;;;7.90;99.90;;;6.40;82.91;96482.38;10546678;28;1940;-78
2021/10/10 17:46:44;;;;;;;;;;;7.80;99.90;;;6.31;84.34;96481.09;10549567;28;1985;-76
2021/10/10 17:51:47;;;;;;;;;;;7.70;99.90;;;6.34;85.99;96491.28;10570148;28;1917;-76
2021/10/10 17:56:50;;;;;;;;;;;7.70;99.90;;;6.27;86.75;96482.56;10570995;28;1978;-77
2021/10/10 18:02:15;;;;;;;;;;;7.70;99.90;;;6.11;89.67;96473.38;10575355;27;1871;-74
2021/10/10 18:12:46;;;;;;;;;;;7.40;99.90;;;6.06;94.38;96499.13;10579003;27;1933;-76
2021/10/10 18:17:49;;;;;;;;;;;7.40;99.90;;;6.10;95.33;96494.94;10575746;28;1908;-76
2021/10/10 18:22:52;;;;;;;;;;;7.40;99.90;;;5.97;97.41;96502.09;10577569;27;1917;-76
2021/10/10 18:27:55;;;;;;;;;;;7.40;99.90;;;5.96;99.60;96505.81;10576266;28;1925;-75
2021/10/10 18:32:58;;;;;;;;;;;7.40;99.90;;;5.89;100.00;96509.56;10570901;27;1945;-78
2021/10/10 18:38:01;;;;;;;;;;;7.30;99.90;;;5.80;100.00;96510.94;10576123;27;1792;-76
2021/10/10 18:43:04;;;;;;;;;;;7.20;99.90;;;5.86;100.00;96513.53;10557871;28;1893;-76
2021/10/10 18:48:07;;;;;;;;;;;7.20;99.90;;;5.68;100.00;96509.03;10573770;27;2387;-76
2021/10/10 18:53:10;;;;;;;;;;;7.10;99.90;;;5.58;100.00;96507.91;10576449;27;1797;-77
2021/10/10 18:58:13;;;;;;;;;;;7.00;99.90;;;5.52;100.00;96522.16;10575747;28;1574;-77
2021/10/10 19:03:16;;;;;;;;;;;6.90;99.90;;;5.51;100.00;96512.53;10576047;27;1939;-77
2021/10/10 19:08:22;;;;;;;;;;;6.90;99.90;;;5.47;100.00;96524.66;10558780;28;1975;-77
2021/10/10 19:13:25;;;;;;;;;;;6.90;99.90;;;5.41;100.00;96535.19;10551322;28;1934;-77
2021/10/10 19:18:28;;;;;;;;;;;6.80;99.90;;;5.33;100.00;96548.00;10576272;28;1937;-78
2021/10/10 19:23:31;;;;;;;;;;;6.70;99.90;;;5.25;100.00;96546.44;10575814;27;1705;-77
2021/10/10 19:28:34;;;;;;;;;;;6.70;99.90;;;5.29;100.00;96558.31;10570192;28;1905;-77
2021/10/10 19:33:36;;;;;;;;;;;6.70;99.90;;;5.19;100.00;96549.97;10576199;27;1848;-78
2021/10/10 19:38:39;;;;;;;;;;;6.60;99.90;;;5.12;100.00;96558.03;10572582;28;1913;-76
2021/10/10 19:43:42;;;;;;;;;;;6.50;99.90;;;5.11;100.00;96535.09;10567534;28;1954;-77
2021/10/10 19:48:45;;;;;;;;;;;6.50;99.90;;;5.01;100.00;96547.28;10572157;27;1985;-76
2021/10/10 19:53:48;;;;;;;;;;;6.50;99.90;;;4.91;100.00;96561.13;10571015;27;1978;-77
2021/10/10 19:58:51;;;;;;;;;;;6.30;99.90;;;4.84;100.00;96555.84;10563545;28;1918;-79
2021/10/10 20:03:54;;;;;;;;;;;6.20;99.90;;;4.77;100.00;96555.09;10570164;27;2212;-77
2021/10/10 20:08:57;;;;;;;;;;;6.20;99.90;;;4.74;100.00;96552.84;10573444;27;2456;-78
2021/10/10 20:14:00;;;;;;;;;;;6.10;99.90;;;4.69;100.00;96549.19;10574587;27;1854;-77
2021/10/10 20:19:03;;;;;;;;;;;6.10;99.90;;;4.64;100.00;96549.84;10579238;27;1792;-80
2021/10/10 20:24:06;;;;;;;;;;;6.00;99.90;;;4.68;100.00;96548.41;10575683;27;1866;-78
2021/10/10 20:29:08;;;;;;;;;;;6.00;99.90;;;4.65;100.00;96548.84;10584803;27;1965;-78
2021/10/10 20:34:11;;;;;;;;;;;6.00;99.90;;;4.56;100.00;96550.13;10576027;27;1949;-79
2021/10/10 20:39:14;;;;;;;;;;;6.00;99.90;;;4.51;100.00;96549.94;10589923;27;1922;-78
2021/10/10 20:44:17;;;;;;;;;;;5.90;99.90;;;4.47;100.00;96554.09;10593738;27;1858;-80
2021/10/10 20:49:20;;;;;;;;;;;5.80;99.90;;;4.38;100.00;96560.69;10589819;27;1930;-78
2021/10/10 20:54:23;;;;;;;;;;;5.80;99.90;;;4.39;100.00;96562.31;10592977;27;1855;-76
2021/10/10 20:59:27;;;;;;;;;;;5.80;99.90;;;4.27;100.00;96563.03;10564876;28;1836;-76
2021/10/10 21:04:30;;;;;;;;;;;5.70;99.90;;;4.25;100.00;96569.59;10547140;28;1987;-77
2021/10/10 21:09:33;;;;;;;;;;;5.70;99.90;;;4.19;100.00;96551.81;10556164;27;1965;-78
2021/10/10 21:14:56;;;;;;;;;;;5.60;99.90;;;4.17;100.00;96552.03;10577809;27;1917;-78
2021/10/10 21:20:19;;;;;;;;;;;5.50;99.90;;;4.10;100.00;96551.25;10589161;27;1827;-78
2021/10/10 21:25:43;;;;;;;;;;;5.50;99.90;;;4.06;100.00;96555.34;10589237;27;2013;-79
2021/10/10 21:36:46;;;;;;;;;;;5.40;99.90;;;3.91;100.00;96538.88;10584221;27;1859;-79
2021/10/10 21:42:09;;;;;;;;;;;5.30;99.90;;;3.91;100.00;96536.22;10591623;27;1811;-79
2021/10/10 21:47:30;;;;;;;;;;;5.20;99.90;;;3.92;100.00;96537.84;10586704;27;1977;-78
2021/10/10 21:52:52;;;;;;;;;;;5.30;99.90;;;3.87;100.00;96527.03;10594848;27;1879;-78
2021/10/10 21:58:13;;;;;;;;;;;5.20;99.90;;;3.80;100.00;96521.75;10586870;28;2016;-78
2021/10/10 22:03:16;;;;;;;;;;;5.20;99.90;;;3.76;100.00;96516.03;10583976;28;1954;-80
2021/10/10 22:08:20;;;;;;;;;;;5.10;99.90;;;3.69;100.00;96509.09;10592933;28;2036;-79
2021/10/10 22:13:23;;;;;;;;;;;5.00;99.90;;;3.72;100.00;96514.81;10588597;28;1882;-78
2021/10/10 22:18:26;;;;;;;;;;;5.00;99.90;;;3.81;100.00;96507.41;10599487;28;2082;-78
2021/10/10 22:23:31;;;;;;;;;;;5.10;99.90;;;3.80;100.00;96511.09;10622023;28;1906;-79
2021/10/10 22:33:55;;;;;;;;;;;5.10;99.90;;;3.55;100.00;96508.34;10605837;28;1902;-79
2021/10/10 22:38:57;;;;;;;;;;;5.10;99.90;;;3.45;100.00;96502.69;10635966;27;1929;-78
2021/10/10 22:44:00;;;;;;;;;;;4.90;99.90;;;3.46;100.00;96497.16;10606088;27;2000;-78
2021/10/10 22:49:03;;;;;;;;;;;4.80;99.90;;;3.50;100.00;96494.91;10608183;27;1960;-77
2021/10/10 22:54:06;;;;;;;;;;;4.90;99.90;;;3.45;100.00;96482.25;10599408;27;1639;-79
2021/10/10 22:59:09;;;;;;;;;;;4.80;99.90;;;3.40;100.00;96479.41;10603040;27;2159;-79
2021/10/10 23:04:12;;;;;;;;;;;4.80;99.90;;;3.36;100.00;96488.00;10599442;27;1977;-79
2021/10/10 23:09:15;;;;;;;;;;;4.80;99.90;;;3.29;100.00;96487.19;10622400;27;1878;-78
2021/10/10 23:14:18;;;;;;;;;;;4.70;99.90;;;3.29;100.00;96493.34;10627723;27;1836;-78
2021/10/10 23:19:21;;;;;;;;;;;4.60;99.90;;;3.25;100.00;96484.97;10624414;27;1948;-78
2021/10/10 23:24:24;;;;;;;;;;;4.60;99.90;;;3.14;100.00;96482.16;10614796;27;1866;-78
2021/10/10 23:29:27;;;;;;;;;;;4.50;99.90;;;3.16;100.00;96480.91;10605819;27;1886;-78
2021/10/10 23:34:30;;;;;;;;;;;4.50;99.90;;;3.18;100.00;96468.25;10602962;27;1607;-78
2021/10/10 23:39:32;;;;;;;;;;;4.50;99.90;;;3.14;100.00;96468.88;10566747;28;1385;-80
2021/10/10 23:44:35;;;;;;;;;;;4.50;99.90;;;3.17;100.00;96463.94;10584416;27;1397;-80
2021/10/10 23:49:38;;;;;;;;;;;4.50;99.90;;;3.11;100.00;96470.09;10574508;28;1987;-79
2021/10/10 23:54:41;;;;;;;;;;;4.50;99.90;;;3.12;100.00;96466.44;10569278;27;1883;-78